createdAt,value
2023-04-18T00:00:26.718Z,99922.16
2023-04-18T00:03:30.091Z,99928.00
2023-04-18T00:06:32.811Z,99923.50
2023-04-18T00:09:35.153Z,99925.97
2023-04-18T00:12:37.592Z,99925.09
2023-04-18T00:15:41.826Z,99940.41
2023-04-18T00:18:44.108Z,99934.81
2023-04-18T00:21:47.161Z,99942.84
2023-04-18T00:24:50.185Z,99944.75
2023-04-18T00:27:52.504Z,99937.22
2023-04-18T00:30:54.989Z,99951.66
2023-04-18T00:33:57.358Z,99941.22
2023-04-18T00:36:59.773Z,99953.09
2023-04-18T00:40:02.143Z,99940.84
2023-04-18T00:43:04.731Z,99952.63
2023-04-18T00:46:08.262Z,99936.78
2023-04-18T00:49:11.619Z,99948.91
2023-04-18T00:52:14.397Z,99936.28
2023-04-18T00:55:16.906Z,99950.22
2023-04-18T00:58:19.321Z,99945.44
2023-04-18T01:01:22.344Z,99944.06
2023-04-18T01:04:24.767Z,99938.34
2023-04-18T01:07:27.085Z,99945.91
2023-04-18T01:10:32.526Z,99935.84
2023-04-18T01:13:34.808Z,99933.78
2023-04-18T01:16:39.104Z,99927.31
2023-04-18T01:19:41.433Z,99926.38
2023-04-18T01:22:43.812Z,99921.47
2023-04-18T01:25:47.222Z,99926.81
2023-04-18T01:28:49.604Z,99926.25
2023-04-18T01:31:52.351Z,99929.66
2023-04-18T01:34:54.681Z,99927.31
2023-04-18T01:37:57.422Z,99931.19
2023-04-18T01:40:59.794Z,99928.25
2023-04-18T01:44:02.386Z,99929.50
2023-04-18T01:47:04.761Z,99931.63
2023-04-18T01:50:08.908Z,99931.94
2023-04-18T01:53:11.179Z,99931.03
2023-04-18T01:56:13.570Z,99930.00
2023-04-18T01:59:16.025Z,99922.44
2023-04-18T02:02:18.698Z,99918.72
2023-04-18T02:05:21.388Z,99926.25
2023-04-18T02:08:23.720Z,99939.19
2023-04-18T02:11:26.304Z,99945.00
2023-04-18T02:14:31.743Z,99933.22
2023-04-18T02:17:36.855Z,99942.00
2023-04-18T02:20:39.353Z,99924.25
2023-04-18T02:23:41.622Z,99932.94
2023-04-18T02:26:44.403Z,99938.34
2023-04-18T02:29:46.722Z,99942.22
2023-04-18T02:32:53.207Z,99948.97
2023-04-18T02:35:59.230Z,99947.09
2023-04-18T02:39:01.496Z,99944.00
2023-04-18T02:42:03.811Z,99938.28
2023-04-18T02:45:07.336Z,99946.09
2023-04-18T02:48:10.298Z,99948.00
2023-04-18T02:51:12.719Z,99943.03
2023-04-18T02:54:15.190Z,99945.72
2023-04-18T02:57:28.214Z,99959.75
2023-04-18T03:00:53.478Z,99963.41
2023-04-18T03:04:16.082Z,99955.16
2023-04-18T03:07:21.235Z,99953.31
2023-04-18T03:10:25.723Z,99952.34
2023-04-18T03:13:28.030Z,99965.69
2023-04-18T03:16:32.324Z,99961.44
2023-04-18T03:19:35.296Z,99962.34
2023-04-18T03:22:41.933Z,99953.34
2023-04-18T03:25:44.402Z,99955.44
2023-04-18T03:28:46.846Z,99957.28
2023-04-18T03:31:49.495Z,99964.09
2023-04-18T03:34:51.868Z,99965.03
2023-04-18T03:37:54.340Z,99954.88
2023-04-18T03:41:02.901Z,99960.28
2023-04-18T03:44:09.446Z,99957.59
2023-04-18T03:47:14.756Z,99952.53
2023-04-18T03:50:19.780Z,99945.53
2023-04-18T03:53:23.184Z,99958.19
2023-04-18T03:56:25.949Z,99971.91
2023-04-18T03:59:31.000Z,99961.75
2023-04-18T04:02:33.524Z,99968.19
2023-04-18T04:05:36.158Z,99973.72
2023-04-18T04:08:38.550Z,99985.09
2023-04-18T04:11:41.324Z,99979.88
2023-04-18T04:14:46.509Z,99986.84
2023-04-18T04:17:50.811Z,99998.44
2023-04-18T04:20:53.812Z,99993.13
2023-04-18T04:24:09.995Z,99990.09
2023-04-18T04:27:18.873Z,99997.28
2023-04-18T04:30:22.307Z,100012.06
2023-04-18T04:33:25.719Z,100008.06
2023-04-18T04:36:30.694Z,100004.06
2023-04-18T04:39:34.760Z,100014.03
2023-04-18T04:43:03.261Z,100015.97
2023-04-18T04:46:13.787Z,100010.69
2023-04-18T04:49:17.905Z,100014.06
2023-04-18T04:52:20.526Z,100018.09
2023-04-18T04:55:22.904Z,100018.97
2023-04-18T04:58:26.003Z,100015.25
2023-04-18T05:01:57.571Z,100023.22
2023-04-18T05:04:59.893Z,100032.50
2023-04-18T05:08:02.876Z,100025.44
2023-04-18T05:11:05.548Z,100034.84
2023-04-18T05:14:07.865Z,100026.88
2023-04-18T05:17:10.204Z,100034.47
2023-04-18T05:20:12.648Z,100031.06
2023-04-18T05:23:15.091Z,100033.16
2023-04-18T05:26:18.827Z,100030.63
2023-04-18T05:29:21.173Z,100031.66
2023-04-18T05:32:23.585Z,100034.00
2023-04-18T05:35:26.260Z,100037.63
2023-04-18T05:38:28.528Z,100038.13
2023-04-18T05:41:30.816Z,100041.28
2023-04-18T05:44:33.382Z,100045.09
2023-04-18T05:47:35.749Z,100040.88
2023-04-18T05:50:38.107Z,100046.56
2023-04-18T05:53:40.381Z,100038.91
2023-04-18T05:56:42.753Z,100041.78
2023-04-18T05:59:45.090Z,100041.25
2023-04-18T06:02:47.478Z,100051.31
2023-04-18T06:05:49.858Z,100046.75
2023-04-18T06:08:52.169Z,100046.97
2023-04-18T06:11:54.522Z,100041.22
2023-04-18T06:14:56.825Z,100041.00
2023-04-18T06:18:00.338Z,100047.88
2023-04-18T06:21:02.663Z,100044.47
2023-04-18T06:24:05.084Z,100056.63
2023-04-18T06:27:12.725Z,100052.94
2023-04-18T06:30:23.009Z,100055.44
2023-04-18T06:33:25.351Z,100042.59
2023-04-18T06:36:27.678Z,100054.03
2023-04-18T06:39:30.352Z,100056.50
2023-04-18T06:42:32.609Z,100062.00
2023-04-18T06:45:35.623Z,100057.97
2023-04-18T06:48:37.912Z,100058.56
2023-04-18T06:51:40.183Z,100056.94
2023-04-18T06:54:42.545Z,100060.69
2023-04-18T06:57:44.864Z,100048.56
2023-04-18T07:00:51.870Z,100057.09
2023-04-18T07:03:54.309Z,100062.91
2023-04-18T07:06:56.701Z,100061.13
2023-04-18T07:09:59.224Z,100067.38
2023-04-18T07:13:01.796Z,100063.31
2023-04-18T07:16:05.740Z,100081.91
2023-04-18T07:19:08.421Z,100062.59
2023-04-18T07:22:10.941Z,100083.66
2023-04-18T07:25:13.241Z,100077.28
2023-04-18T07:28:15.632Z,100077.75
2023-04-18T07:31:21.026Z,100078.06
2023-04-18T07:34:23.480Z,100084.00
2023-04-18T07:37:26.238Z,100087.53
2023-04-18T07:40:28.546Z,100087.22
2023-04-18T07:43:30.856Z,100094.44
2023-04-18T07:46:34.595Z,100090.19
2023-04-18T07:49:37.557Z,100091.31
2023-04-18T07:52:39.896Z,100083.63
2023-04-18T07:55:43.346Z,100101.75
2023-04-18T07:58:45.669Z,100099.09
2023-04-18T08:01:47.992Z,100105.56
2023-04-18T08:04:52.413Z,100094.53
2023-04-18T08:07:54.931Z,100092.97
2023-04-18T08:10:57.356Z,100104.19
2023-04-18T08:13:59.811Z,100101.75
2023-04-18T08:17:02.155Z,100101.41
2023-04-18T08:20:07.484Z,100096.31
2023-04-18T08:23:12.312Z,100093.06
2023-04-18T08:26:15.193Z,100109.66
2023-04-18T08:29:17.695Z,100096.78
2023-04-18T08:32:20.023Z,100111.34
2023-04-18T08:35:22.495Z,100112.16
2023-04-18T08:38:24.784Z,100106.59
2023-04-18T08:41:28.786Z,100109.06
2023-04-18T08:44:31.379Z,100112.03
2023-04-18T08:47:35.406Z,100118.47
2023-04-18T08:50:37.787Z,100098.94
2023-04-18T08:53:42.134Z,100106.66
2023-04-18T08:56:45.207Z,100113.03
2023-04-18T08:59:49.002Z,100113.84
2023-04-18T09:02:57.260Z,100123.53
2023-04-18T09:06:08.427Z,100111.97
2023-04-18T09:09:10.756Z,100085.66
2023-04-18T09:12:15.531Z,100103.31
2023-04-18T09:15:20.897Z,100088.53
2023-04-18T09:18:24.256Z,100094.84
2023-04-18T09:21:28.057Z,100094.75
2023-04-18T09:24:32.065Z,100087.06
2023-04-18T09:27:34.898Z,100107.81
2023-04-18T09:30:39.454Z,100099.88
2023-04-18T09:33:52.828Z,100116.66
2023-04-18T09:37:12.064Z,100102.13
2023-04-18T09:40:21.523Z,100102.59
2023-04-18T09:43:26.855Z,100106.22
2023-04-18T09:46:31.768Z,100116.56
2023-04-18T09:49:34.157Z,100105.28
2023-04-18T09:52:41.069Z,100105.47
2023-04-18T09:55:43.509Z,100103.31
2023-04-18T09:58:47.673Z,100098.47
2023-04-18T10:01:50.875Z,100091.50
2023-04-18T10:04:54.535Z,100081.97
2023-04-18T10:07:57.019Z,100097.00
2023-04-18T10:10:59.515Z,100096.56
2023-04-18T10:14:13.774Z,100096.69
2023-04-18T10:17:16.367Z,100089.31
2023-04-18T10:20:20.496Z,100092.44
2023-04-18T10:23:43.234Z,100095.53
2023-04-18T10:26:47.115Z,100094.91
2023-04-18T10:29:51.280Z,100100.47
2023-04-18T10:32:55.661Z,100090.84
2023-04-18T10:35:58.866Z,100102.75
2023-04-18T10:39:01.163Z,100102.97
2023-04-18T10:42:03.575Z,100105.31
2023-04-18T10:45:26.817Z,100110.94
2023-04-18T10:48:32.926Z,100093.69
2023-04-18T10:51:35.486Z,100107.97
2023-04-18T10:54:40.755Z,100106.28
2023-04-18T10:57:45.831Z,100094.44
2023-04-18T11:00:50.352Z,100084.91
2023-04-18T11:03:53.683Z,100080.63
2023-04-18T11:06:57.604Z,100085.69
2023-04-18T11:10:01.953Z,100087.66
2023-04-18T11:13:06.596Z,100083.84
2023-04-18T11:16:09.151Z,100083.75
2023-04-18T11:19:21.879Z,100087.94
2023-04-18T11:22:24.201Z,100087.38
2023-04-18T11:25:37.310Z,100084.91
2023-04-18T11:28:41.874Z,100091.63
2023-04-18T11:31:51.405Z,100104.25
2023-04-18T11:34:54.924Z,100088.34
2023-04-18T11:37:57.236Z,100080.19
2023-04-18T11:41:02.677Z,100094.09
2023-04-18T11:44:06.485Z,100089.50
2023-04-18T11:47:34.041Z,100082.53
2023-04-18T11:50:37.708Z,100082.59
2023-04-18T11:53:40.032Z,100079.22
2023-04-18T11:56:50.276Z,100080.75
2023-04-18T11:59:53.246Z,100086.72
2023-04-18T12:02:55.702Z,100065.97
2023-04-18T12:06:00.494Z,100085.22
2023-04-18T12:09:03.012Z,100074.78
2023-04-18T12:12:06.431Z,100079.81
2023-04-18T12:15:13.883Z,100074.22
2023-04-18T12:18:19.938Z,100080.38
2023-04-18T12:21:22.272Z,100083.50
2023-04-18T12:24:25.283Z,100060.44
2023-04-18T12:27:47.135Z,100078.06
2023-04-18T12:30:49.405Z,100078.25
2023-04-18T12:33:51.753Z,100079.31
2023-04-18T12:36:54.271Z,100084.22
2023-04-18T12:39:56.670Z,100065.28
2023-04-18T12:42:59.757Z,100068.19
2023-04-18T12:46:03.394Z,100086.50
2023-04-18T12:49:05.717Z,100067.25
2023-04-18T12:52:08.278Z,100078.47
2023-04-18T12:55:11.960Z,100082.09
2023-04-18T12:58:18.643Z,100075.03
2023-04-18T13:01:21.247Z,100067.91
2023-04-18T13:04:23.817Z,100060.66
2023-04-18T13:07:26.379Z,100086.69
2023-04-18T13:10:28.874Z,100063.22
2023-04-18T13:13:31.200Z,100064.53
2023-04-18T13:16:33.677Z,100077.75
2023-04-18T13:19:36.037Z,100074.56
2023-04-18T13:22:39.161Z,100074.16
2023-04-18T13:25:41.505Z,100083.06
2023-04-18T13:28:43.785Z,100074.91
2023-04-18T13:31:46.197Z,100076.44
2023-04-18T13:34:48.845Z,100081.63
2023-04-18T13:37:51.166Z,100083.81
2023-04-18T13:41:04.444Z,100079.75
2023-04-18T13:44:13.591Z,100073.19
2023-04-18T13:47:16.347Z,100074.97
2023-04-18T13:50:19.333Z,100071.31
2023-04-18T13:53:21.774Z,100084.88
2023-04-18T13:56:24.425Z,100095.56
2023-04-18T13:59:27.131Z,100089.16
2023-04-18T14:02:29.752Z,100063.56
2023-04-18T14:05:32.203Z,100071.44
2023-04-18T14:08:34.647Z,100086.06
2023-04-18T14:11:38.528Z,100086.28
2023-04-18T14:14:41.189Z,100071.88
2023-04-18T14:17:45.454Z,100068.56
2023-04-18T14:20:48.759Z,100071.44
2023-04-18T14:23:52.385Z,100066.81
2023-04-18T14:26:54.885Z,100077.13
2023-04-18T14:29:57.322Z,100070.69
2023-04-18T14:32:59.765Z,100076.41
2023-04-18T14:36:02.827Z,100063.22
2023-04-18T14:39:05.669Z,100068.81
2023-04-18T14:42:08.022Z,100068.66
2023-04-18T14:45:11.747Z,100083.81
2023-04-18T14:48:14.185Z,100075.25
2023-04-18T14:51:16.935Z,100058.59
2023-04-18T14:54:19.365Z,100066.69
2023-04-18T14:57:21.804Z,100074.00
2023-04-18T15:00:27.148Z,100078.81
2023-04-18T15:03:29.702Z,100084.53
2023-04-18T15:06:32.739Z,100063.09
2023-04-18T15:09:38.734Z,100069.00
2023-04-18T15:12:41.958Z,100083.25
2023-04-18T15:15:51.625Z,100076.28
2023-04-18T15:18:53.926Z,100081.16
2023-04-18T15:21:56.398Z,100079.03
2023-04-18T15:24:58.718Z,100076.88
2023-04-18T15:28:01.086Z,100077.19
2023-04-18T15:31:06.016Z,100080.69
2023-04-18T15:34:08.413Z,100085.81
2023-04-18T15:37:10.913Z,100087.97
2023-04-18T15:40:16.292Z,100069.97
2023-04-18T15:43:18.700Z,100093.16
2023-04-18T15:46:21.090Z,100084.50
2023-04-18T15:49:23.619Z,100092.13
2023-04-18T15:52:26.053Z,100074.34
2023-04-18T15:55:28.519Z,100079.94
2023-04-18T15:58:33.902Z,100079.69
2023-04-18T16:01:36.746Z,100075.69
2023-04-18T16:04:39.181Z,100078.66
2023-04-18T16:07:42.653Z,100095.63
2023-04-18T16:10:45.124Z,100071.69
2023-04-18T16:13:47.888Z,100094.56
2023-04-18T16:17:00.504Z,100088.63
2023-04-18T16:20:03.756Z,100075.16
2023-04-18T16:23:06.285Z,100093.22
2023-04-18T16:26:09.042Z,100089.97
2023-04-18T16:29:11.380Z,100091.63
2023-04-18T16:32:13.973Z,100091.06
2023-04-18T16:35:16.403Z,100099.16
2023-04-18T16:38:18.783Z,100101.84
2023-04-18T16:41:21.066Z,100102.66
2023-04-18T16:44:23.498Z,100091.88
2023-04-18T16:47:26.053Z,100109.91
2023-04-18T16:50:28.409Z,100101.56
2023-04-18T16:53:30.823Z,100108.53
2023-04-18T16:56:34.118Z,100116.34
2023-04-18T16:59:36.641Z,100110.16
2023-04-18T17:02:42.922Z,100109.63
2023-04-18T17:05:46.479Z,100117.16
2023-04-18T17:08:49.204Z,100091.53
2023-04-18T17:11:51.607Z,100104.22
2023-04-18T17:14:53.926Z,100095.59
2023-04-18T17:18:01.412Z,100116.06
2023-04-18T17:21:04.092Z,100089.13
2023-04-18T17:24:07.228Z,100089.91
2023-04-18T17:30:32.120Z,100102.00
2023-04-18T17:33:34.643Z,100125.97
2023-04-18T17:36:38.846Z,100096.31
2023-04-18T17:39:41.901Z,100110.59
2023-04-18T17:42:44.492Z,100103.84
2023-04-18T17:45:47.125Z,100107.06
2023-04-18T17:48:49.772Z,100077.09
2023-04-18T17:51:52.672Z,100108.63
2023-04-18T17:54:57.216Z,100128.00
2023-04-18T17:57:59.764Z,100118.00
2023-04-18T18:01:02.362Z,100087.16
2023-04-18T18:04:07.526Z,100114.66
2023-04-18T18:07:13.298Z,100135.16
2023-04-18T18:10:41.067Z,100119.75
2023-04-18T18:13:50.937Z,100119.69
2023-04-18T18:17:03.437Z,100098.34
2023-04-18T18:20:15.321Z,100128.78
2023-04-18T18:23:18.779Z,100128.19
2023-04-18T18:26:21.477Z,100128.72
2023-04-18T18:29:37.902Z,100137.09
2023-04-18T18:32:40.759Z,100110.94
2023-04-18T18:35:43.381Z,100114.66
2023-04-18T18:39:48.137Z,100157.84
2023-04-18T18:42:51.699Z,100108.66
2023-04-18T18:45:54.306Z,100136.16
2023-04-18T18:48:56.931Z,100136.38
2023-04-18T18:51:59.480Z,100136.03
2023-04-18T18:55:02.079Z,100158.88
2023-04-18T18:58:07.924Z,100181.56
2023-04-18T19:01:13.805Z,100178.78
2023-04-18T19:04:16.606Z,100180.88
2023-04-18T19:07:21.221Z,100172.94
2023-04-18T19:10:25.990Z,100184.09
2023-04-18T19:13:28.514Z,100192.38
2023-04-18T19:16:30.958Z,100162.75
2023-04-18T19:19:34.654Z,100196.81
2023-04-18T19:22:38.035Z,100173.63
2023-04-18T19:25:43.209Z,100183.16
2023-04-18T19:28:48.089Z,100207.66
2023-04-18T19:31:50.524Z,100198.25
2023-04-18T19:34:52.966Z,100175.84
2023-04-18T19:38:05.755Z,100213.84
2023-04-18T19:41:18.954Z,100188.69
2023-04-18T19:44:25.804Z,100188.53
2023-04-18T19:47:32.253Z,100200.34
2023-04-18T19:50:35.097Z,100215.50
2023-04-18T19:53:37.485Z,100221.63
2023-04-18T19:56:39.796Z,100200.63
2023-04-18T19:59:42.291Z,100213.78
2023-04-18T20:02:44.823Z,100207.59
2023-04-18T20:05:47.330Z,100203.69
2023-04-18T20:08:49.725Z,100209.88
2023-04-18T20:11:54.356Z,100198.03
2023-04-18T20:15:08.607Z,100206.94
2023-04-18T20:18:14.988Z,100218.22
2023-04-18T20:21:17.597Z,100211.22
2023-04-18T20:24:21.176Z,100243.31
2023-04-18T20:27:23.552Z,100246.56
2023-04-18T20:30:26.505Z,100218.44
2023-04-18T20:33:38.635Z,100216.75
2023-04-18T20:36:53.240Z,100207.47
2023-04-18T20:40:09.747Z,100229.94
2023-04-18T20:43:12.753Z,100228.25
2023-04-18T20:46:16.219Z,100218.81
2023-04-18T20:49:18.663Z,100181.34
2023-04-18T20:52:21.166Z,100219.56
2023-04-18T20:55:23.464Z,100197.25
2023-04-18T20:58:29.086Z,100198.84
2023-04-18T21:01:32.880Z,100191.97
2023-04-18T21:04:57.058Z,100207.63
2023-04-18T21:08:08.852Z,100206.00
2023-04-18T21:11:16.690Z,100181.38
2023-04-18T21:14:22.965Z,100181.66
2023-04-18T21:17:29.037Z,100205.38
2023-04-18T21:20:45.697Z,100218.59
2023-04-18T21:23:51.218Z,100207.00
2023-04-18T21:27:07.975Z,100170.28
2023-04-18T21:30:16.013Z,100170.47
2023-04-18T21:36:50.330Z,100161.63
2023-04-18T21:39:55.711Z,100191.81
2023-04-18T21:43:12.176Z,100202.16
2023-04-18T21:46:47.106Z,100186.06
2023-04-18T21:50:11.403Z,100191.03
2023-04-18T21:53:19.297Z,100189.56
2023-04-18T21:56:31.505Z,100190.38
2023-04-18T21:59:44.803Z,100181.97
2023-04-18T22:06:08.411Z,100152.50
2023-04-18T22:09:11.895Z,100192.53
2023-04-18T22:12:14.430Z,100193.03
2023-04-18T22:15:22.434Z,100164.34
2023-04-18T22:18:28.494Z,100162.34
2023-04-18T22:21:35.287Z,100189.06
2023-04-18T22:24:47.372Z,100173.84
2023-04-18T22:27:58.564Z,100161.22
2023-04-18T22:31:06.875Z,100181.97
2023-04-18T22:34:13.983Z,100196.72
2023-04-18T22:37:21.627Z,100181.41
2023-04-18T22:40:27.022Z,100153.81
2023-04-18T22:43:35.260Z,100150.84
2023-04-18T22:46:43.718Z,100164.41
2023-04-18T22:53:05.905Z,100159.16
2023-04-18T22:56:16.056Z,100168.81
2023-04-18T22:59:32.490Z,100128.59
2023-04-18T23:02:39.937Z,100165.84
2023-04-18T23:05:47.204Z,100152.03
2023-04-18T23:08:56.197Z,100138.28
2023-04-18T23:12:00.924Z,100136.66
2023-04-18T23:15:20.323Z,100129.41
2023-04-18T23:18:30.451Z,100148.38
2023-04-18T23:21:38.096Z,100141.41
2023-04-18T23:24:45.106Z,100112.47
2023-04-18T23:27:52.290Z,100135.22
2023-04-18T23:30:59.069Z,100133.47
2023-04-18T23:34:04.272Z,100104.28
2023-04-18T23:37:06.588Z,100096.19
2023-04-18T23:40:12.696Z,100120.56
2023-04-18T23:46:58.341Z,100091.53
2023-04-18T23:50:10.794Z,100091.03
2023-04-18T23:53:16.593Z,100086.22
2023-04-18T23:56:19.563Z,100104.09
2023-04-18T23:59:25.163Z,100096.50
